createdAt,value
2023-04-29T00:01:07.530Z,15.77
2023-04-29T00:06:11.822Z,15.72
2023-04-29T00:11:14.568Z,15.66
2023-04-29T00:16:18.835Z,15.56
2023-04-29T00:21:21.443Z,15.57
2023-04-29T00:26:27.249Z,15.51
2023-04-29T00:31:33.149Z,15.46
2023-04-29T00:36:37.365Z,15.39
2023-04-29T00:41:40.606Z,15.38
2023-04-29T00:46:43.618Z,15.29
2023-04-29T00:51:46.412Z,15.35
2023-04-29T00:56:50.918Z,15.29
2023-04-29T01:01:54.311Z,15.24
2023-04-29T01:07:15.663Z,15.18
2023-04-29T01:12:36.928Z,15.10
2023-04-29T01:17:54.559Z,14.99
2023-04-29T01:22:57.070Z,14.99
2023-04-29T01:28:21.995Z,14.89
2023-04-29T01:33:44.884Z,14.87
2023-04-29T01:39:03.707Z,14.85
2023-04-29T01:44:09.060Z,14.79
2023-04-29T01:49:13.199Z,14.73
2023-04-29T01:54:16.271Z,14.69
2023-04-29T01:59:21.184Z,14.72
2023-04-29T02:04:29.564Z,14.71
2023-04-29T02:09:32.723Z,14.71
2023-04-29T02:14:43.110Z,14.79
2023-04-29T02:19:46.180Z,14.91
2023-04-29T02:24:49.031Z,14.99
2023-04-29T02:29:52.126Z,15.08
2023-04-29T02:34:54.935Z,15.23
2023-04-29T02:39:57.834Z,15.42
2023-04-29T02:45:01.425Z,15.55
2023-04-29T02:50:06.986Z,15.91
2023-04-29T02:55:10.228Z,16.20
2023-04-29T03:00:13.633Z,16.47
2023-04-29T03:05:16.490Z,16.75
2023-04-29T03:10:19.674Z,17.00
2023-04-29T03:15:22.728Z,17.24
2023-04-29T03:20:27.599Z,17.67
2023-04-29T03:25:30.586Z,18.12
2023-04-29T03:30:33.636Z,18.94
2023-04-29T03:35:36.455Z,19.58
2023-04-29T03:41:05.966Z,19.72
2023-04-29T03:46:08.595Z,20.34
2023-04-29T03:51:12.025Z,20.62
2023-04-29T03:56:17.271Z,21.48
2023-04-29T04:01:21.082Z,22.14
2023-04-29T04:06:24.361Z,22.94
2023-04-29T04:11:28.605Z,23.55
2023-04-29T04:16:33.968Z,24.03
2023-04-29T04:21:37.903Z,22.76
2023-04-29T04:26:44.332Z,22.27
2023-04-29T04:32:07.309Z,22.16
2023-04-29T04:37:12.212Z,23.63
2023-04-29T04:42:15.932Z,25.46
2023-04-29T04:47:19.126Z,26.11
2023-04-29T04:52:26.953Z,26.07
2023-04-29T04:57:40.093Z,25.28
2023-04-29T05:02:43.084Z,24.55
2023-04-29T05:07:46.132Z,24.88
2023-04-29T05:12:49.176Z,25.04
2023-04-29T05:17:51.989Z,25.40
2023-04-29T05:22:54.938Z,25.25
2023-04-29T05:27:58.922Z,25.39
2023-04-29T05:33:05.666Z,25.07
2023-04-29T05:38:08.821Z,25.03
2023-04-29T05:43:15.026Z,26.50
2023-04-29T05:48:17.556Z,26.84
2023-04-29T05:53:20.031Z,26.57
2023-04-29T05:58:24.023Z,28.46
2023-04-29T06:03:26.826Z,29.92
2023-04-29T06:08:53.605Z,31.31
2023-04-29T06:14:01.523Z,32.37
2023-04-29T06:19:04.694Z,32.21
2023-04-29T06:24:08.004Z,31.73
2023-04-29T06:29:11.423Z,32.28
2023-04-29T06:34:14.579Z,32.52
2023-04-29T06:39:35.875Z,32.72
2023-04-29T06:44:56.165Z,33.08
2023-04-29T06:50:14.042Z,33.71
2023-04-29T06:55:17.298Z,33.66
2023-04-29T07:00:27.189Z,35.06
2023-04-29T07:05:31.629Z,34.20
2023-04-29T07:10:53.862Z,34.03
2023-04-29T07:15:59.452Z,34.00
2023-04-29T07:21:04.091Z,33.65
2023-04-29T07:26:11.532Z,34.38
2023-04-29T07:31:14.796Z,34.60
2023-04-29T07:36:17.736Z,34.65
2023-04-29T07:41:20.662Z,34.57
2023-04-29T07:46:24.478Z,34.52
2023-04-29T07:51:29.307Z,32.84
2023-04-29T07:56:33.488Z,31.12
2023-04-29T08:01:38.523Z,31.29
2023-04-29T08:06:42.089Z,32.14
2023-04-29T08:11:48.578Z,33.95
2023-04-29T08:16:51.515Z,34.23
2023-04-29T08:21:55.070Z,33.99
2023-04-29T08:26:59.211Z,34.87
2023-04-29T08:32:02.348Z,33.37
2023-04-29T08:37:05.532Z,32.00
2023-04-29T08:42:10.345Z,31.46
2023-04-29T08:47:14.492Z,32.18
2023-04-29T08:52:18.622Z,31.83
2023-04-29T08:57:22.645Z,30.65
2023-04-29T09:02:26.649Z,30.61
2023-04-29T09:07:31.757Z,32.32
2023-04-29T09:12:36.556Z,32.59
2023-04-29T09:17:44.703Z,32.85
2023-04-29T09:22:52.821Z,32.39
2023-04-29T09:27:56.278Z,33.36
2023-04-29T09:33:10.100Z,33.61
2023-04-29T09:38:16.702Z,34.26
2023-04-29T09:43:19.972Z,33.40
2023-04-29T09:48:23.690Z,32.92
2023-04-29T09:53:31.929Z,31.56
2023-04-29T09:58:38.202Z,31.03
2023-04-29T10:03:44.080Z,30.44
2023-04-29T10:08:48.753Z,30.40
2023-04-29T10:13:52.986Z,30.15
2023-04-29T10:18:57.472Z,30.36
2023-04-29T10:24:02.796Z,30.02
2023-04-29T10:29:06.042Z,29.25
2023-04-29T10:34:09.084Z,28.77
2023-04-29T10:39:24.341Z,28.61
2023-04-29T10:44:27.101Z,28.44
2023-04-29T10:49:34.993Z,28.33
2023-04-29T10:54:40.409Z,28.94
2023-04-29T10:59:43.155Z,28.89
2023-04-29T11:05:12.801Z,28.65
2023-04-29T11:10:15.952Z,28.45
2023-04-29T11:15:18.878Z,28.07
2023-04-29T11:20:21.773Z,28.41
2023-04-29T11:25:26.140Z,28.07
2023-04-29T11:30:30.235Z,28.02
2023-04-29T11:35:51.718Z,27.84
2023-04-29T11:41:15.923Z,27.63
2023-04-29T11:46:19.027Z,27.66
2023-04-29T11:51:22.911Z,27.57
2023-04-29T11:56:26.217Z,27.55
2023-04-29T12:01:29.298Z,27.58
2023-04-29T12:06:32.572Z,27.49
2023-04-29T12:11:37.806Z,27.49
2023-04-29T12:16:44.480Z,27.61
2023-04-29T12:21:50.557Z,27.48
2023-04-29T12:26:55.092Z,27.69
2023-04-29T12:31:58.807Z,27.84
2023-04-29T12:37:59.270Z,27.79
2023-04-29T12:43:44.333Z,27.81
2023-04-29T12:49:02.622Z,27.47
2023-04-29T12:54:07.621Z,27.12
2023-04-29T12:59:13.149Z,26.90
2023-04-29T13:04:16.218Z,26.95
2023-04-29T13:09:19.294Z,26.81
2023-04-29T13:14:22.543Z,26.74
2023-04-29T13:19:41.191Z,26.56
2023-04-29T13:24:53.010Z,26.46
2023-04-29T13:29:56.679Z,26.31
2023-04-29T13:34:59.422Z,26.24
2023-04-29T13:40:02.431Z,26.16
2023-04-29T13:45:06.606Z,25.87
2023-04-29T13:50:47.160Z,25.80
2023-04-29T14:05:47.730Z,25.58
2023-04-29T14:10:50.893Z,25.56
2023-04-29T14:15:54.941Z,25.52
2023-04-29T14:20:59.892Z,25.57
2023-04-29T14:31:28.585Z,25.57
2023-04-29T14:36:34.734Z,25.57
2023-04-29T14:41:37.802Z,25.54
2023-04-29T14:46:41.102Z,25.50
2023-04-29T14:51:44.285Z,25.45
2023-04-29T14:56:47.154Z,25.48
2023-04-29T15:01:51.757Z,25.45
2023-04-29T15:07:01.766Z,25.41
2023-04-29T15:12:09.546Z,25.33
2023-04-29T15:17:13.935Z,25.25
2023-04-29T15:22:35.903Z,25.18
2023-04-29T15:27:38.655Z,25.03
2023-04-29T15:32:41.712Z,24.91
2023-04-29T15:37:44.532Z,24.75
2023-04-29T15:42:50.198Z,24.59
2023-04-29T15:47:53.589Z,24.47
2023-04-29T15:52:59.744Z,24.40
2023-04-29T15:58:02.750Z,24.24
2023-04-29T16:03:05.749Z,24.10
2023-04-29T16:08:08.892Z,23.95
2023-04-29T16:13:11.896Z,23.68
2023-04-29T16:18:14.950Z,23.42
2023-04-29T16:23:18.123Z,23.23
2023-04-29T16:28:21.658Z,23.10
2023-04-29T16:33:24.433Z,22.95
2023-04-29T16:38:30.004Z,22.79
2023-04-29T16:43:32.930Z,22.54
2023-04-29T16:48:35.994Z,22.37
2023-04-29T16:53:38.633Z,22.19
2023-04-29T16:58:41.650Z,21.98
2023-04-29T17:03:44.652Z,21.74
2023-04-29T17:08:50.043Z,21.66
2023-04-29T17:13:55.254Z,21.53
2023-04-29T17:18:58.336Z,21.37
2023-04-29T17:24:04.102Z,21.26
2023-04-29T17:29:18.259Z,21.07
2023-04-29T17:34:26.071Z,20.90
2023-04-29T17:39:36.964Z,20.76
2023-04-29T17:44:54.366Z,20.69
2023-04-29T17:50:00.316Z,20.65
2023-04-29T17:55:07.288Z,20.58
2023-04-29T18:00:11.504Z,20.42
2023-04-29T18:05:14.703Z,20.34
2023-04-29T18:10:17.673Z,20.24
2023-04-29T18:15:22.607Z,20.22
2023-04-29T18:20:25.775Z,20.19
2023-04-29T18:25:28.881Z,20.16
2023-04-29T18:30:32.321Z,20.04
2023-04-29T18:35:35.240Z,20.01
2023-04-29T18:40:38.318Z,19.96
2023-04-29T18:45:41.498Z,19.95
2023-04-29T18:50:44.730Z,19.94
2023-04-29T18:55:47.813Z,19.89
2023-04-29T19:00:51.426Z,19.81
2023-04-29T19:05:54.625Z,19.89
2023-04-29T19:10:58.671Z,19.87
2023-04-29T19:16:03.343Z,19.98
2023-04-29T19:21:06.345Z,20.05
2023-04-29T19:26:11.330Z,20.08
2023-04-29T19:31:14.048Z,20.30
2023-04-29T19:36:16.929Z,20.58
2023-04-29T19:41:23.706Z,20.74
2023-04-29T19:46:26.617Z,20.71
2023-04-29T19:51:29.705Z,20.67
2023-04-29T19:56:32.495Z,20.69
2023-04-29T20:01:35.426Z,20.72
2023-04-29T20:06:38.580Z,20.67
2023-04-29T20:11:41.539Z,20.62
2023-04-29T20:16:44.412Z,20.53
2023-04-29T20:21:47.203Z,20.52
2023-04-29T20:26:49.955Z,20.46
2023-04-29T20:31:53.064Z,20.37
2023-04-29T20:36:56.175Z,20.35
2023-04-29T20:41:58.955Z,20.30
2023-04-29T20:47:02.188Z,20.20
2023-04-29T20:52:08.128Z,20.14
2023-04-29T20:57:10.940Z,20.04
2023-04-29T21:02:13.719Z,19.92
2023-04-29T21:07:16.583Z,19.85
2023-04-29T21:12:19.377Z,19.71
2023-04-29T21:17:22.372Z,19.59
2023-04-29T21:22:25.238Z,19.43
2023-04-29T21:27:28.086Z,19.37
2023-04-29T21:32:31.117Z,19.27
2023-04-29T21:37:34.260Z,19.11
2023-04-29T21:42:37.290Z,18.98
2023-04-29T21:47:40.347Z,18.82
2023-04-29T21:52:43.622Z,18.58
2023-04-29T21:57:46.433Z,18.41
2023-04-29T22:02:49.215Z,18.21
2023-04-29T22:07:52.014Z,18.03
2023-04-29T22:12:54.844Z,17.85
2023-04-29T22:17:58.084Z,17.75
2023-04-29T22:23:00.979Z,17.61
2023-04-29T22:28:03.885Z,17.49
2023-04-29T22:33:06.692Z,17.43
2023-04-29T22:38:10.021Z,17.32
2023-04-29T22:43:12.857Z,17.28
2023-04-29T22:48:15.749Z,17.11
2023-04-29T22:53:18.814Z,16.95
2023-04-29T22:58:22.211Z,16.80
2023-04-29T23:03:25.588Z,16.69
2023-04-29T23:08:28.874Z,16.55
2023-04-29T23:13:32.283Z,16.45
2023-04-29T23:18:35.120Z,16.35
2023-04-29T23:23:37.879Z,16.26
2023-04-29T23:28:41.298Z,16.20
2023-04-29T23:33:44.525Z,16.25
2023-04-29T23:38:47.658Z,16.23
2023-04-29T23:43:50.605Z,16.26
2023-04-29T23:48:53.436Z,16.28
2023-04-29T23:53:56.076Z,16.14
2023-04-29T23:58:58.802Z,16.22
